createdAt,value
2019-04-21T00:01:14.575Z,102703.53
2019-04-21T00:03:50.196Z,102697.83
2019-04-21T00:06:36.811Z,102691.23
2019-04-21T00:11:39.102Z,102684.86
2019-04-21T00:13:56.386Z,102691.91
2019-04-21T00:16:19.228Z,102694.53
2019-04-21T00:19:07.195Z,102691.14
2019-04-21T00:21:38.600Z,102684.36
2019-04-21T00:24:20.296Z,102687.63
2019-04-21T00:26:57.483Z,102684.03
2019-04-21T00:29:34.013Z,102687.05
2019-04-21T00:31:54.989Z,102686.22
2019-04-21T00:34:11.185Z,102690.36
2019-04-21T00:36:51.535Z,102686.84
2019-04-21T00:39:36.994Z,102686.05
2019-04-21T00:41:58.959Z,102678.66
2019-04-21T00:44:22.451Z,102674.66
2019-04-21T00:46:55.832Z,102672.16
2019-04-21T00:49:31.182Z,102669.38
2019-04-21T00:52:11.414Z,102662.52
2019-04-21T00:54:49.875Z,102650.16
2019-04-21T00:57:13.083Z,102655.28
2019-04-21T00:59:40.413Z,102655.28
2019-04-21T01:02:09.884Z,102658.15
2019-04-21T01:04:43.210Z,102661.01
2019-04-21T01:07:12.489Z,102657.20
2019-04-21T01:09:32.724Z,102651.80
2019-04-21T01:12:07.852Z,102648.22
2019-04-21T01:14:46.967Z,102650.75
2019-04-21T01:17:14.569Z,102644.94
2019-04-21T01:19:37.080Z,102649.80
2019-04-21T01:21:48.302Z,102656.17
2019-04-21T01:24:21.931Z,102652.66
2019-04-21T01:26:56.779Z,102652.66
2019-04-21T01:29:44.138Z,102653.28
2019-04-21T01:32:10.509Z,102650.09
2019-04-21T01:34:39.192Z,102650.90
2019-04-21T01:37:04.094Z,102652.94
2019-04-21T01:39:42.816Z,102655.22
2019-04-21T01:42:11.346Z,102647.94
2019-04-21T01:44:41.919Z,102644.13
2019-04-21T01:47:02.827Z,102643.17
2019-04-21T01:49:28.456Z,102639.80
2019-04-21T01:55:03.128Z,102641.61
2019-04-21T01:57:46.978Z,102636.81
2019-04-21T02:00:08.456Z,102623.56
2019-04-21T02:02:54.664Z,102623.56
2019-04-21T02:05:26.425Z,102632.02
2019-04-21T02:07:44.329Z,102632.02
2019-04-21T02:10:17.786Z,102622.72
2019-04-21T02:12:45.943Z,102607.86
2019-04-21T02:15:38.026Z,102615.62
2019-04-21T02:17:47.017Z,102612.03
2019-04-21T02:20:12.332Z,102612.03
2019-04-21T02:23:06.007Z,102602.15
2019-04-21T02:25:21.796Z,102606.90
2019-04-21T02:27:54.782Z,102604.33
2019-04-21T02:30:29.660Z,102604.33
2019-04-21T02:33:03.876Z,102606.81
2019-04-21T02:40:30.227Z,102601.62
2019-04-21T02:50:30.461Z,102607.11
2019-04-21T02:53:01.347Z,102606.30
2019-04-21T03:00:34.552Z,102586.19
2019-04-21T03:03:06.429Z,102602.48
2019-04-21T03:08:25.316Z,102593.41
2019-04-21T03:10:53.402Z,102589.50
2019-04-21T03:13:24.502Z,102584.36
2019-04-21T03:16:01.248Z,102577.23
2019-04-21T03:20:52.873Z,102578.58
2019-04-21T03:28:22.666Z,102562.73
2019-04-21T03:34:05.609Z,102565.89
2019-04-21T03:36:18.207Z,102553.28
2019-04-21T03:38:18.852Z,102556.90
2019-04-21T03:40:47.414Z,102556.90
2019-04-21T03:43:20.265Z,102552.03
2019-04-21T03:45:51.399Z,102547.14
2019-04-21T03:48:21.647Z,102552.42
2019-04-21T03:53:18.526Z,102549.52
2019-04-21T04:06:28.761Z,102544.52
2019-04-21T04:09:11.094Z,102545.25
2019-04-21T04:14:17.721Z,102551.14
2019-04-21T04:19:01.647Z,102544.55
2019-04-21T04:26:37.447Z,102541.91
2019-04-21T04:34:04.469Z,102531.73
2019-04-21T04:39:36.213Z,102526.19
2019-04-21T04:42:12.556Z,102521.59
2019-04-21T04:44:50.010Z,102524.16
2019-04-21T04:47:12.281Z,102526.28
2019-04-21T04:49:43.292Z,102528.52
2019-04-21T04:52:28.559Z,102526.22
2019-04-21T04:57:22.162Z,102523.25
2019-04-21T05:02:11.337Z,102523.26
2019-04-21T05:09:31.986Z,102507.84
2019-04-21T05:12:05.995Z,102504.91
2019-04-21T05:14:32.676Z,102499.31
2019-04-21T05:22:08.208Z,102501.77
2019-04-21T05:24:25.457Z,102496.53
2019-04-21T05:26:50.761Z,102490.69
2019-04-21T05:29:17.971Z,102491.70
2019-04-21T05:32:00.394Z,102492.70
2019-04-21T05:34:31.608Z,102493.94
2019-04-21T05:37:10.388Z,102484.89
2019-04-21T05:39:33.610Z,102487.87
2019-04-21T05:41:55.202Z,102483.37
2019-04-21T05:44:58.827Z,102486.95
2019-04-21T05:47:20.388Z,102484.31
2019-04-21T05:49:41.419Z,102484.89
2019-04-21T05:52:05.454Z,102477.28
2019-04-21T05:54:44.116Z,102474.03
2019-04-21T05:57:09.910Z,102474.03
2019-04-21T05:59:56.032Z,102470.70
2019-04-21T06:07:18.859Z,102468.78
2019-04-21T06:09:53.796Z,102461.06
2019-04-21T06:12:14.661Z,102465.82
2019-04-21T06:14:52.202Z,102462.40
2019-04-21T06:17:19.295Z,102455.06
2019-04-21T06:22:07.549Z,102448.09
2019-04-21T06:25:08.956Z,102450.05
2019-04-21T06:27:14.805Z,102450.42
2019-04-21T06:29:46.582Z,102446.33
2019-04-21T06:32:37.520Z,102446.33
2019-04-21T06:34:56.524Z,102438.94
2019-04-21T06:37:35.987Z,102442.94
2019-04-21T06:42:13.263Z,102427.48
2019-04-21T06:44:54.105Z,102438.95
2019-04-21T06:47:28.389Z,102439.19
2019-04-21T06:49:44.369Z,102439.38
2019-04-21T06:52:29.851Z,102433.08
2019-04-21T06:54:50.747Z,102436.34
2019-04-21T06:57:16.582Z,102430.59
2019-04-21T06:59:43.636Z,102430.59
2019-04-21T07:02:31.886Z,102440.50
2019-04-21T07:04:46.483Z,102426.75
2019-04-21T07:07:13.046Z,102425.02
2019-04-21T07:09:42.897Z,102430.16
2019-04-21T07:12:12.598Z,102427.39
2019-04-21T07:14:45.132Z,102428.85
2019-04-21T07:17:19.330Z,102428.57
2019-04-21T07:19:49.899Z,102429.05
2019-04-21T07:22:21.176Z,102422.38
2019-04-21T07:24:45.817Z,102423.44
2019-04-21T07:27:17.579Z,102427.73
2019-04-21T07:29:47.486Z,102430.41
2019-04-21T07:32:20.720Z,102426.45
2019-04-21T07:34:46.147Z,102415.88
2019-04-21T07:37:13.915Z,102419.44
2019-04-21T07:39:46.643Z,102419.31
2019-04-21T07:42:09.921Z,102414.84
2019-04-21T07:44:36.532Z,102412.09
2019-04-21T07:47:15.656Z,102415.61
2019-04-21T07:49:53.528Z,102412.13
2019-04-21T07:52:28.584Z,102414.41
2019-04-21T07:55:12.582Z,102405.03
2019-04-21T07:57:28.089Z,102409.25
2019-04-21T08:00:09.300Z,102407.97
2019-04-21T08:02:29.339Z,102404.69
2019-04-21T08:05:02.396Z,102406.94
2019-04-21T08:07:37.899Z,102400.80
2019-04-21T08:09:57.022Z,102402.87
2019-04-21T08:12:25.595Z,102398.07
2019-04-21T08:15:01.495Z,102396.21
2019-04-21T08:17:30.788Z,102395.23
2019-04-21T08:19:53.622Z,102395.63
2019-04-21T08:22:30.745Z,102383.72
2019-04-21T08:24:56.409Z,102386.84
2019-04-21T08:27:37.302Z,102388.69
2019-04-21T08:30:00.985Z,102388.19
2019-04-21T08:32:36.290Z,102379.88
2019-04-21T08:35:14.794Z,102380.88
2019-04-21T08:37:27.587Z,102374.14
2019-04-21T08:40:04.934Z,102371.75
2019-04-21T08:42:26.694Z,102369.81
2019-04-21T08:45:00.265Z,102370.23
2019-04-21T08:47:28.470Z,102369.83
2019-04-21T08:49:56.924Z,102363.26
2019-04-21T08:52:37.066Z,102362.83
2019-04-21T08:55:15.536Z,102358.44
2019-04-21T08:58:00.395Z,102358.08
2019-04-21T09:00:26.545Z,102361.61
2019-04-21T09:03:03.750Z,102353.47
2019-04-21T09:05:31.304Z,102352.09
2019-04-21T09:07:57.382Z,102354.67
2019-04-21T09:10:28.352Z,102354.02
2019-04-21T09:13:00.228Z,102356.77
2019-04-21T09:15:24.882Z,102352.80
2019-04-21T09:17:49.205Z,102353.18
2019-04-21T09:20:32.727Z,102350.59
2019-04-21T09:23:02.242Z,102353.41
2019-04-21T09:25:33.381Z,102340.55
2019-04-21T09:28:00.660Z,102345.78
2019-04-21T09:30:11.022Z,102350.22
2019-04-21T09:32:40.384Z,102338.80
2019-04-21T09:35:11.260Z,102340.20
2019-04-21T09:37:47.344Z,102336.75
2019-04-21T09:40:09.022Z,102327.22
2019-04-21T09:42:46.972Z,102327.25
2019-04-21T09:45:10.023Z,102329.29
2019-04-21T09:47:45.026Z,102323.41
2019-04-21T09:50:09.589Z,102323.03
2019-04-21T09:52:45.125Z,102324.23
2019-04-21T09:55:14.296Z,102318.13
2019-04-21T09:57:44.756Z,102315.02
2019-04-21T10:00:13.064Z,102308.59
2019-04-21T10:02:48.245Z,102306.81
2019-04-21T10:05:07.815Z,102302.95
2019-04-21T10:07:40.516Z,102301.59
2019-04-21T10:10:08.186Z,102298.07
2019-04-21T10:12:37.313Z,102294.22
2019-04-21T10:15:06.264Z,102297.36
2019-04-21T10:17:52.397Z,102287.92
2019-04-21T10:20:20.660Z,102287.81
2019-04-21T10:22:49.028Z,102281.03
2019-04-21T10:25:18.561Z,102284.19
2019-04-21T10:27:47.276Z,102277.86
2019-04-21T10:30:16.248Z,102271.86
2019-04-21T10:32:44.481Z,102275.31
2019-04-21T10:35:13.008Z,102269.34
2019-04-21T10:37:49.806Z,102265.91
2019-04-21T10:40:11.763Z,102259.92
2019-04-21T10:42:40.438Z,102258.45
2019-04-21T10:45:08.770Z,102259.43
2019-04-21T10:47:37.045Z,102255.33
2019-04-21T10:50:09.024Z,102249.50
2019-04-21T10:52:55.250Z,102248.16
2019-04-21T10:55:40.449Z,102244.08
2019-04-21T10:58:11.219Z,102241.69
2019-04-21T11:00:42.059Z,102235.06
2019-04-21T11:03:27.174Z,102238.97
2019-04-21T11:05:57.008Z,102232.27
2019-04-21T11:08:30.748Z,102231.62
2019-04-21T11:10:56.083Z,102223.85
2019-04-21T11:13:24.309Z,102221.32
2019-04-21T11:15:52.966Z,102221.84
2019-04-21T11:18:21.927Z,102220.26
2019-04-21T11:20:51.127Z,102214.36
2019-04-21T11:23:22.259Z,102218.00
2019-04-21T11:25:49.575Z,102219.48
2019-04-21T11:28:18.622Z,102211.66
2019-04-21T11:30:46.908Z,102209.65
2019-04-21T11:33:15.436Z,102211.23
2019-04-21T11:35:43.751Z,102206.20
2019-04-21T11:38:18.073Z,102200.13
2019-04-21T11:40:43.467Z,102198.27
2019-04-21T11:43:11.715Z,102195.81
2019-04-21T11:45:40.210Z,102188.98
2019-04-21T11:48:10.466Z,102187.36
2019-04-21T11:50:39.182Z,102185.75
2019-04-21T11:53:08.403Z,102190.36
2019-04-21T11:55:39.789Z,102194.95
2019-04-21T11:58:07.699Z,102192.33
2019-04-21T12:00:35.912Z,102185.02
2019-04-21T12:03:04.183Z,102179.92
2019-04-21T12:05:33.042Z,102179.59
2019-04-21T12:08:02.009Z,102173.27
2019-04-21T12:10:31.400Z,102169.03
2019-04-21T12:12:59.642Z,102163.25
2019-04-21T12:15:29.098Z,102161.33
2019-04-21T12:17:57.403Z,102158.17
2019-04-21T12:20:26.441Z,102153.86
2019-04-21T12:22:54.938Z,102153.25
2019-04-21T12:25:27.382Z,102153.31
2019-04-21T12:27:56.099Z,102155.58
2019-04-21T12:30:24.432Z,102144.77
2019-04-21T12:32:58.097Z,102142.09
2019-04-21T12:35:26.425Z,102134.89
2019-04-21T12:37:55.021Z,102130.38
2019-04-21T12:40:24.458Z,102127.91
2019-04-21T12:42:52.937Z,102123.33
2019-04-21T12:45:22.074Z,102123.19
2019-04-21T12:47:52.010Z,102114.09
2019-04-21T12:50:21.461Z,102111.59
2019-04-21T12:52:49.906Z,102107.49
2019-04-21T12:55:19.613Z,102108.00
2019-04-21T12:57:47.897Z,102099.27
2019-04-21T13:00:18.473Z,102094.36
2019-04-21T13:02:47.743Z,102094.09
2019-04-21T13:05:16.004Z,102087.47
2019-04-21T13:07:45.602Z,102084.06
2019-04-21T13:10:16.154Z,102074.55
2019-04-21T13:12:44.441Z,102070.39
2019-04-21T13:15:13.639Z,102072.98
2019-04-21T13:17:44.467Z,102066.53
2019-04-21T13:20:11.914Z,102069.48
2019-04-21T13:22:40.117Z,102060.29
2019-04-21T13:25:09.628Z,102061.01
2019-04-21T13:27:38.773Z,102051.75
2019-04-21T13:30:14.684Z,102049.17
2019-04-21T13:32:43.122Z,102041.08
2019-04-21T13:35:12.818Z,102037.44
2019-04-21T13:37:41.558Z,102035.46
2019-04-21T13:40:49.926Z,102032.96
2019-04-21T13:43:04.087Z,102029.70
2019-04-21T13:45:32.210Z,102025.34
2019-04-21T13:48:00.980Z,102023.62
2019-04-21T13:50:29.191Z,102024.06
2019-04-21T13:52:58.675Z,102014.20
2019-04-21T13:55:27.543Z,102016.17
2019-04-21T13:57:56.752Z,102012.83
2019-04-21T14:00:25.029Z,102009.31
2019-04-21T14:02:54.577Z,102006.83
2019-04-21T14:05:24.354Z,102003.81
2019-04-21T14:07:54.377Z,102003.62
2019-04-21T14:10:23.881Z,101997.55
2019-04-21T14:12:52.096Z,102001.14
2019-04-21T14:15:22.022Z,101993.45
2019-04-21T14:17:50.906Z,101992.36
2019-04-21T14:20:19.596Z,101992.16
2019-04-21T14:22:47.987Z,101982.39
2019-04-21T14:25:17.387Z,101978.38
2019-04-21T14:27:49.059Z,101977.61
2019-04-21T14:30:16.772Z,101964.48
2019-04-21T14:32:46.094Z,101963.23
2019-04-21T14:35:14.991Z,101964.02
2019-04-21T14:37:44.497Z,101960.13
2019-04-21T14:40:18.987Z,101966.36
2019-04-21T14:42:44.349Z,101958.05
2019-04-21T14:45:14.527Z,101961.12
2019-04-21T14:47:46.344Z,101957.73
2019-04-21T14:50:18.966Z,101950.56
2019-04-21T14:52:48.807Z,101947.41
2019-04-21T14:55:22.891Z,101947.40
2019-04-21T14:57:51.592Z,101943.34
2019-04-21T15:00:21.039Z,101945.44
2019-04-21T15:02:49.715Z,101950.42
2019-04-21T15:05:19.633Z,101945.24
2019-04-21T15:07:48.931Z,101941.48
2019-04-21T15:10:23.190Z,101946.33
2019-04-21T15:12:49.792Z,101943.02
2019-04-21T15:15:18.126Z,101944.12
2019-04-21T15:17:46.400Z,101942.69
2019-04-21T15:20:16.293Z,101940.56
2019-04-21T15:22:46.110Z,101942.67
2019-04-21T15:25:14.400Z,101938.55
2019-04-21T15:27:43.129Z,101937.80
2019-04-21T15:30:11.293Z,101926.56
2019-04-21T15:32:40.237Z,101926.91
2019-04-21T15:35:09.187Z,101929.09
2019-04-21T15:37:37.957Z,101916.57
2019-04-21T15:40:21.100Z,101919.55
2019-04-21T15:42:36.777Z,101917.63
2019-04-21T15:45:06.369Z,101913.05
2019-04-21T15:47:36.017Z,101916.45
2019-04-21T15:50:10.201Z,101912.92
2019-04-21T15:52:35.840Z,101908.34
2019-04-21T15:55:06.691Z,101911.20
2019-04-21T15:57:52.344Z,101907.11
2019-04-21T16:00:25.036Z,101908.34
2019-04-21T16:02:53.301Z,101909.88
2019-04-21T16:05:22.516Z,101902.52
2019-04-21T16:07:51.991Z,101900.69
2019-04-21T16:10:30.987Z,101904.13
2019-04-21T16:12:51.662Z,101900.27
2019-04-21T16:15:20.886Z,101905.08
2019-04-21T16:17:49.298Z,101896.20
2019-04-21T16:20:17.850Z,101897.79
2019-04-21T16:22:46.519Z,101898.13
2019-04-21T16:25:15.053Z,101892.13
2019-04-21T16:27:43.504Z,101891.28
2019-04-21T16:30:12.239Z,101887.06
2019-04-21T16:32:41.942Z,101889.08
2019-04-21T16:35:12.476Z,101885.81
2019-04-21T16:37:41.446Z,101888.52
2019-04-21T16:40:09.723Z,101894.72
2019-04-21T16:42:38.498Z,101889.77
2019-04-21T16:45:07.433Z,101887.49
2019-04-21T16:47:35.946Z,101894.89
2019-04-21T16:50:07.760Z,101890.48
2019-04-21T16:52:40.361Z,101890.53
2019-04-21T16:55:23.185Z,101891.81
2019-04-21T16:58:04.627Z,101886.16
2019-04-21T17:00:36.472Z,101886.86
2019-04-21T17:02:56.791Z,101889.75
2019-04-21T17:05:24.996Z,101882.50
2019-04-21T17:07:53.299Z,101871.59
2019-04-21T17:10:22.429Z,101877.50
2019-04-21T17:12:51.329Z,101875.16
2019-04-21T17:15:38.898Z,101866.51
2019-04-21T17:18:10.150Z,101869.92
2019-04-21T17:20:35.460Z,101875.05
2019-04-21T17:22:51.396Z,101873.19
2019-04-21T17:25:21.584Z,101871.81
2019-04-21T17:27:51.112Z,101869.91
2019-04-21T17:30:19.793Z,101861.14
2019-04-21T17:32:49.989Z,101859.67
2019-04-21T17:35:19.820Z,101865.15
2019-04-21T17:37:48.328Z,101856.30
2019-04-21T17:40:21.972Z,101864.33
2019-04-21T17:42:59.783Z,101866.16
2019-04-21T17:45:21.253Z,101857.48
2019-04-21T17:47:57.183Z,101855.66
2019-04-21T17:50:21.064Z,101855.11
2019-04-21T17:53:03.160Z,101853.56
2019-04-21T17:55:36.742Z,101853.65
2019-04-21T17:58:15.016Z,101852.53
2019-04-21T18:01:13.907Z,101850.34
2019-04-21T18:03:40.725Z,101849.91
2019-04-21T18:05:50.260Z,101854.31
2019-04-21T18:08:29.501Z,101852.75
2019-04-21T18:10:53.207Z,101855.38
2019-04-21T18:13:12.003Z,101850.90
2019-04-21T18:15:54.391Z,101853.34
2019-04-21T18:18:08.358Z,101850.59
2019-04-21T18:20:39.831Z,101853.38
2019-04-21T18:23:37.901Z,101857.91
2019-04-21T18:26:01.390Z,101851.00
2019-04-21T18:28:22.827Z,101853.05
2019-04-21T18:30:54.269Z,101856.11
2019-04-21T18:33:30.006Z,101860.59
2019-04-21T18:36:02.431Z,101863.50
2019-04-21T18:39:04.117Z,101868.47
2019-04-21T18:41:36.558Z,101869.12
2019-04-21T18:47:16.850Z,101866.94
2019-04-21T18:49:33.277Z,101864.08
2019-04-21T18:52:16.023Z,101868.11
2019-04-21T18:54:49.778Z,101867.73
2019-04-21T18:57:16.649Z,101869.73
2019-04-21T18:59:36.179Z,101872.76
2019-04-21T19:02:08.063Z,101872.33
2019-04-21T19:04:35.272Z,101874.99
2019-04-21T19:07:17.997Z,101876.45
2019-04-21T19:10:11.297Z,101877.63
2019-04-21T19:12:35.701Z,101875.16
2019-04-21T19:14:55.014Z,101879.43
2019-04-21T19:17:57.074Z,101880.94
2019-04-21T19:19:56.469Z,101875.02
2019-04-21T19:22:21.736Z,101875.79
2019-04-21T19:24:52.314Z,101878.33
2019-04-21T19:27:25.174Z,101873.42
2019-04-21T19:29:58.209Z,101867.33
2019-04-21T19:34:37.823Z,101874.56
2019-04-21T19:37:10.850Z,101869.78
2019-04-21T19:39:48.839Z,101881.20
2019-04-21T19:42:18.298Z,101883.44
2019-04-21T19:44:52.083Z,101878.84
2019-04-21T19:47:28.330Z,101872.51
2019-04-21T19:49:55.154Z,101872.22
2019-04-21T19:52:11.328Z,101870.52
2019-04-21T19:54:37.956Z,101867.43
2019-04-21T19:57:04.911Z,101861.95
2019-04-21T19:59:40.541Z,101860.09
2019-04-21T20:02:04.601Z,101866.47
2019-04-21T20:04:40.722Z,101857.95
2019-04-21T20:07:17.494Z,101856.80
2019-04-21T20:09:50.463Z,101856.15
2019-04-21T20:12:20.063Z,101853.31
2019-04-21T20:14:55.762Z,101850.30
2019-04-21T20:17:13.710Z,101853.25
2019-04-21T20:19:34.174Z,101852.62
2019-04-21T20:22:03.159Z,101847.13
2019-04-21T20:24:33.797Z,101848.70
2019-04-21T20:27:11.485Z,101847.83
2019-04-21T20:29:49.878Z,101849.86
2019-04-21T20:32:25.683Z,101847.67
2019-04-21T20:34:56.174Z,101845.20
2019-04-21T20:37:21.340Z,101857.34
2019-04-21T20:39:45.584Z,101847.96
2019-04-21T20:42:15.634Z,101852.27
2019-04-21T20:44:55.388Z,101849.20
2019-04-21T20:47:11.365Z,101851.66
2019-04-21T20:49:41.515Z,101843.75
2019-04-21T20:52:23.988Z,101843.39
2019-04-21T20:54:48.182Z,101846.72
2019-04-21T20:57:21.919Z,101848.13
2019-04-21T20:59:43.857Z,101848.22
2019-04-21T21:02:20.079Z,101848.17
2019-04-21T21:04:44.676Z,101847.52
2019-04-21T21:07:34.629Z,101847.40
2019-04-21T21:10:03.123Z,101847.46
2019-04-21T21:12:39.175Z,101842.48
2019-04-21T21:14:52.954Z,101842.98
2019-04-21T21:17:39.484Z,101838.34
2019-04-21T21:20:05.575Z,101833.52
2019-04-21T21:22:18.305Z,101836.31
2019-04-21T21:24:50.569Z,101838.94
2019-04-21T21:27:19.573Z,101833.09
2019-04-21T21:29:56.569Z,101828.53
2019-04-21T21:32:25.817Z,101827.69
2019-04-21T21:34:56.844Z,101825.38
2019-04-21T21:37:35.111Z,101828.66
2019-04-21T21:39:57.139Z,101827.20
2019-04-21T21:42:09.861Z,101828.09
2019-04-21T21:44:40.726Z,101817.42
2019-04-21T21:47:23.093Z,101819.83
2019-04-21T21:49:54.217Z,101822.11
2019-04-21T21:52:18.372Z,101819.74
2019-04-21T21:54:38.130Z,101820.52
2019-04-21T21:57:06.612Z,101818.41
2019-04-21T21:59:38.238Z,101822.02
2019-04-21T22:02:05.277Z,101817.09
2019-04-21T22:04:36.077Z,101813.36
2019-04-21T22:07:08.206Z,101809.42
2019-04-21T22:09:34.489Z,101806.05
2019-04-21T22:12:06.595Z,101812.92
2019-04-21T22:14:41.074Z,101812.45
2019-04-21T22:17:16.205Z,101804.11
2019-04-21T22:20:00.398Z,101808.22
2019-04-21T22:22:17.951Z,101806.74
2019-04-21T22:24:46.846Z,101809.11
2019-04-21T22:27:05.244Z,101808.63
2019-04-21T22:29:38.201Z,101802.79
2019-04-21T22:32:12.592Z,101804.55
2019-04-21T22:34:42.395Z,101802.45
2019-04-21T22:37:21.193Z,101801.45
2019-04-21T22:39:49.609Z,101801.94
2019-04-21T22:42:13.430Z,101790.78
2019-04-21T22:44:34.416Z,101797.48
2019-04-21T22:47:12.139Z,101803.67
2019-04-21T22:49:34.859Z,101799.33
2019-04-21T22:52:13.519Z,101803.19
2019-04-21T22:54:38.146Z,101804.41
2019-04-21T22:57:11.759Z,101802.93
2019-04-21T22:59:34.182Z,101798.22
2019-04-21T23:02:06.478Z,101801.21
2019-04-21T23:04:41.716Z,101796.97
2019-04-21T23:07:10.110Z,101794.98
2019-04-21T23:09:34.902Z,101801.20
2019-04-21T23:12:04.923Z,101797.45
2019-04-21T23:14:46.801Z,101797.21
2019-04-21T23:17:24.305Z,101786.55
2019-04-21T23:19:49.223Z,101795.73
2019-04-21T23:22:21.432Z,101793.63
2019-04-21T23:24:53.157Z,101793.48
2019-04-21T23:27:14.150Z,101791.49
2019-04-21T23:30:13.196Z,101790.01
2019-04-21T23:32:19.578Z,101789.23
2019-04-21T23:34:36.744Z,101786.75
2019-04-21T23:37:10.572Z,101792.83
2019-04-21T23:39:37.071Z,101784.52
2019-04-21T23:42:06.030Z,101787.25
2019-04-21T23:44:42.428Z,101783.41
2019-04-21T23:47:08.633Z,101784.77
2019-04-21T23:49:43.048Z,101780.16
2019-04-21T23:52:08.154Z,101780.41
2019-04-21T23:54:33.833Z,101775.44
2019-04-21T23:57:11.068Z,101780.03
2019-04-21T23:59:38.696Z,101783.76
